Time;durP1;ratioP1;P1;durP2;ratioP2;P2;SDS_P1;SDS_P2;PMS_P1;PMS_P2;Temp;Humidity;BMP_temperature;BMP_pressure;BME280_temperature;BME280_humidity;BME280_pressure;Samples;Min_cycle;Max_cycle;Signal;HPM_P1;HPM_P2
2021/07/03 00:00:05;;;;;;;;;;;;;;;26.43;38.36;99929.97;4381443;32;34514;-86
2021/07/03 00:02:37;;;;;;;;;;;;;;;27.05;37.16;99925.94;4472779;31;33656;-87
2021/07/03 00:05:11;;;;;;;;;;;;;;;26.81;37.65;99928.16;4381969;32;35164;-85
2021/07/03 00:07:46;;;;;;;;;;;;;;;26.99;37.36;99927.34;4383081;32;34666;-85
2021/07/03 00:10:24;;;;;;;;;;;;;;;27.14;36.92;99920.50;4393345;32;34524;-87
2021/07/03 00:12:56;;;;;;;;;;;;;;;27.20;36.86;99920.91;4405976;32;33950;-87
2021/07/03 00:15:30;;;;;;;;;;;;;;;26.93;37.40;99923.44;4381046;32;36412;-87
2021/07/03 00:18:01;;;;;;;;;;;;;;;27.21;36.91;99927.94;4381486;32;33344;-86
2021/07/03 00:20:33;;;;;;;;;;;;;;;27.23;36.81;99924.13;4444172;32;33900;-86
2021/07/03 00:23:05;;;;;;;;;;;;;;;27.17;36.97;99922.88;4393613;32;34241;-86
2021/07/03 00:25:38;;;;;;;;;;;;;;;27.35;36.65;99927.44;4381593;32;36480;-87
2021/07/03 00:28:09;;;;;;;;;;;;;;;26.91;37.49;99928.12;4394570;32;35201;-87
2021/07/03 00:30:40;;;;;;;;;;;;;;;26.80;37.68;99922.97;4382544;32;33117;-87
2021/07/03 00:33:13;;;;;;;;;;;;;;;26.67;38.01;99916.09;4393780;32;33337;-87
2021/07/03 00:35:46;;;;;;;;;;;;;;;26.56;38.27;99921.62;4380704;32;34043;-86
2021/07/03 00:38:19;;;;;;;;;;;;;;;26.63;38.00;99914.72;4393126;32;34892;-88
2021/07/03 00:40:50;;;;;;;;;;;;;;;26.79;37.80;99924.81;4393464;32;34956;-86
2021/07/03 00:43:24;;;;;;;;;;;;;;;26.09;39.21;99922.47;4393178;32;34377;-87
2021/07/03 00:45:58;;;;;;;;;;;;;;;26.69;38.05;99923.97;4392747;32;34587;-85
2021/07/03 00:48:31;;;;;;;;;;;;;;;26.39;38.61;99922.38;4406335;32;35113;-86
2021/07/03 00:51:02;;;;;;;;;;;;;;;26.32;38.75;99922.13;4392819;32;32826;-86
2021/07/03 00:53:40;;;;;;;;;;;;;;;26.16;39.05;99920.06;4381491;32;32802;-87
2021/07/03 00:56:13;;;;;;;;;;;;;;;26.33;38.72;99919.31;4393923;32;34874;-87
2021/07/03 00:58:46;;;;;;;;;;;;;;;26.57;38.25;99922.47;4393494;32;37488;-86
2021/07/03 01:01:20;;;;;;;;;;;;;;;25.75;40.11;99932.72;4381627;32;34769;-87
2021/07/03 01:03:56;;;;;;;;;;;;;;;26.28;38.86;99934.91;4442184;32;32486;-87
2021/07/03 01:06:30;;;;;;;;;;;;;;;26.17;39.10;99930.59;4406331;32;33962;-87
2021/07/03 01:09:03;;;;;;;;;;;;;;;25.53;40.53;99931.16;4393615;32;35128;-87
2021/07/03 01:11:35;;;;;;;;;;;;;;;25.45;40.71;99918.56;4368628;32;35114;-86
2021/07/03 01:14:10;;;;;;;;;;;;;;;25.80;39.93;99930.47;4381307;32;35283;-87
2021/07/03 01:16:44;;;;;;;;;;;;;;;26.05;39.33;99923.75;4380191;32;35123;-86
2021/07/03 01:19:16;;;;;;;;;;;;;;;25.75;40.13;99941.56;4460067;31;36111;-86
2021/07/03 01:21:51;;;;;;;;;;;;;;;25.74;40.11;99931.91;4393686;32;34243;-85
2021/07/03 01:24:25;;;;;;;;;;;;;;;25.62;40.36;99930.34;4393467;32;34882;-86
2021/07/03 01:26:58;;;;;;;;;;;;;;;25.12;41.53;99944.56;4393769;32;33919;-86
2021/07/03 01:29:28;;;;;;;;;;;;;;;24.94;41.98;99945.22;4392147;32;34410;-84
2021/07/03 01:32:04;;;;;;;;;;;;;;;25.43;40.90;99939.19;4393022;32;33738;-84
2021/07/03 01:34:36;;;;;;;;;;;;;;;25.82;40.04;99944.50;4392529;32;33715;-85
2021/07/03 01:37:14;;;;;;;;;;;;;;;25.89;39.88;99936.81;4380628;32;34816;-87
2021/07/03 01:39:50;;;;;;;;;;;;;;;25.75;40.12;99938.06;4381910;32;33922;-87
2021/07/03 01:42:32;;;;;;;;;;;;;;;25.49;40.79;99938.63;4395652;32;34181;-85
2021/07/03 01:45:04;;;;;;;;;;;;;;;25.62;40.54;99939.19;4380621;32;34402;-87
2021/07/03 01:47:56;;;;;;;;;;;;;;;25.01;41.88;99938.38;4392490;32;33351;-86
2021/07/03 01:50:32;;;;;;;;;;;;;;;25.43;40.97;99939.19;4392083;32;35797;-87
2021/07/03 01:53:05;;;;;;;;;;;;;;;26.01;39.68;99941.00;4380509;32;36518;-86
2021/07/03 01:55:41;;;;;;;;;;;;;;;26.11;39.39;99939.19;4381230;32;36142;-86
2021/07/03 01:58:21;;;;;;;;;;;;;;;26.05;39.48;99931.75;4394002;32;34508;-86
2021/07/03 02:00:54;;;;;;;;;;;;;;;26.05;39.54;99938.94;4394084;32;33084;-85
2021/07/03 02:03:32;;;;;;;;;;;;;;;26.10;39.40;99933.97;4392833;32;36794;-84
2021/07/03 02:06:08;;;;;;;;;;;;;;;26.43;38.78;99942.47;4392357;32;34260;-87
2021/07/03 02:08:51;;;;;;;;;;;;;;;26.19;39.20;99940.28;4382701;32;36607;-86
2021/07/03 02:11:24;;;;;;;;;;;;;;;25.87;39.98;99947.59;4381573;32;33897;-85
2021/07/03 02:13:57;;;;;;;;;;;;;;;25.68;40.44;99956.47;4393498;32;34540;-85
2021/07/03 02:16:27;;;;;;;;;;;;;;;25.47;40.96;99948.59;4379439;32;33261;-85
2021/07/03 02:19:01;;;;;;;;;;;;;;;25.30;41.25;99950.94;4381340;32;33192;-86
2021/07/03 02:21:34;;;;;;;;;;;;;;;26.19;39.36;99954.47;4380900;32;37247;-87
2021/07/03 02:24:07;;;;;;;;;;;;;;;25.54;40.85;99951.53;4395994;32;33875;-87
2021/07/03 02:26:41;;;;;;;;;;;;;;;25.82;40.27;99949.84;4394994;32;34194;-86
2021/07/03 02:29:16;;;;;;;;;;;;;;;25.84;40.15;99945.22;4407421;32;35074;-87
2021/07/03 02:31:50;;;;;;;;;;;;;;;25.70;40.52;99940.31;4382693;32;32945;-87
2021/07/03 02:34:22;;;;;;;;;;;;;;;24.93;42.47;99946.19;4394445;32;36770;-86
2021/07/03 02:36:56;;;;;;;;;;;;;;;25.37;41.36;99939.72;4383007;32;34148;-87
2021/07/03 02:39:27;;;;;;;;;;;;;;;25.00;42.32;99941.16;4395465;32;35243;-86
2021/07/03 02:42:00;;;;;;;;;;;;;;;24.64;43.24;99946.94;4381907;32;35696;-86
2021/07/03 02:44:34;;;;;;;;;;;;;;;24.48;43.88;99952.69;4382622;32;35677;-87
2021/07/03 02:47:05;;;;;;;;;;;;;;;25.01;42.42;99949.03;4395624;32;33770;-86
2021/07/03 02:49:39;;;;;;;;;;;;;;;25.48;41.40;99955.63;4394178;32;32859;-86
2021/07/03 02:52:14;;;;;;;;;;;;;;;24.89;42.75;99954.59;4394626;32;36298;-86
2021/07/03 02:54:49;;;;;;;;;;;;;;;25.41;41.50;99949.13;4394001;32;36474;-85
2021/07/03 02:57:21;;;;;;;;;;;;;;;25.24;42.02;99953.31;4395498;32;34286;-86
2021/07/03 02:59:54;;;;;;;;;;;;;;;25.55;41.28;99948.72;4383457;32;35854;-85
2021/07/03 03:02:36;;;;;;;;;;;;;;;25.08;42.40;99959.16;4384504;32;34925;-85
2021/07/03 03:05:11;;;;;;;;;;;;;;;25.47;41.48;99959.25;4382199;32;33192;-86
2021/07/03 03:07:48;;;;;;;;;;;;;;;24.83;43.03;99953.31;4394113;32;33749;-86
2021/07/03 03:10:19;;;;;;;;;;;;;;;25.29;42.02;99965.22;4393883;32;32999;-87
2021/07/03 03:12:53;;;;;;;;;;;;;;;25.44;41.64;99960.38;4461293;31;33546;-87
2021/07/03 03:15:31;;;;;;;;;;;;;;;25.59;41.33;99958.13;4383213;32;33768;-85
2021/07/03 03:18:03;;;;;;;;;;;;;;;25.79;40.85;99959.00;4382393;32;32650;-86
2021/07/03 03:20:38;;;;;;;;;;;;;;;25.68;41.18;99973.31;4442796;32;33815;-86
2021/07/03 03:23:14;;;;;;;;;;;;;;;25.19;42.23;99972.34;4381797;32;34330;-86
2021/07/03 03:25:48;;;;;;;;;;;;;;;25.63;41.30;99977.38;4383520;32;35072;-87
2021/07/03 03:28:21;;;;;;;;;;;;;;;25.56;41.45;99977.09;4383045;32;33579;-85
2021/07/03 03:30:52;;;;;;;;;;;;;;;25.88;40.78;99978.66;4456493;32;36427;-88
2021/07/03 03:33:27;;;;;;;;;;;;;;;25.72;41.02;99973.03;4394913;32;34342;-87
2021/07/03 03:36:16;;;;;;;;;;;;;;;26.02;40.43;99977.41;4396750;32;33418;-87
2021/07/03 03:38:49;;;;;;;;;;;;;;;25.84;40.96;99971.91;4459999;31;33484;-86
2021/07/03 03:41:24;;;;;;;;;;;;;;;25.89;40.79;99972.34;4382604;32;35142;-86
2021/07/03 03:44:04;;;;;;;;;;;;;;;25.58;41.50;99977.81;4383615;32;32640;-85
2021/07/03 03:46:39;;;;;;;;;;;;;;;26.01;40.55;99973.03;4380961;32;37123;-87
2021/07/03 03:49:15;;;;;;;;;;;;;;;26.23;40.04;99973.72;4395083;32;33388;-88
2021/07/03 03:51:51;;;;;;;;;;;;;;;25.93;40.84;99979.06;4396569;32;35330;-86
2021/07/03 03:54:23;;;;;;;;;;;;;;;25.89;40.99;99976.84;4387265;32;33065;-86
2021/07/03 03:59:48;;;;;;;;;;;;;;;25.85;41.20;99984.28;4399577;32;35990;-87
2021/07/03 04:02:20;;;;;;;;;;;;;;;26.30;40.33;99975.69;4383816;32;37405;-89
2021/07/03 04:04:58;;;;;;;;;;;;;;;25.96;41.03;99978.78;4462169;31;34866;-87
2021/07/03 04:07:31;;;;;;;;;;;;;;;26.02;41.02;99980.06;4472933;31;33702;-87
2021/07/03 04:10:15;;;;;;;;;;;;;;;25.60;42.06;99983.84;4394096;32;34701;-88
2021/07/03 04:12:46;;;;;;;;;;;;;;;25.88;41.42;99975.16;4381392;32;35112;-86
2021/07/03 04:15:17;;;;;;;;;;;;;;;25.57;42.28;99978.78;4393252;32;33851;-86
2021/07/03 04:17:51;;;;;;;;;;;;;;;25.46;42.35;99974.41;4382507;32;33323;-85
2021/07/03 04:20:25;;;;;;;;;;;;;;;24.81;44.26;99981.91;4460434;31;33706;-88
2021/07/03 04:22:58;;;;;;;;;;;;;;;25.32;43.10;99972.94;4393379;32;36085;-86
2021/07/03 04:25:30;;;;;;;;;;;;;;;25.39;42.96;99972.44;4406441;32;34211;-87
2021/07/03 04:28:06;;;;;;;;;;;;;;;25.91;41.80;99969.53;4393222;32;34933;-87
2021/07/03 04:30:41;;;;;;;;;;;;;;;25.63;42.37;99967.56;4381950;32;32865;-87
2021/07/03 04:33:21;;;;;;;;;;;;;;;26.08;41.42;99962.66;4394206;32;33751;-87
2021/07/03 04:35:57;;;;;;;;;;;;;;;25.88;41.93;99956.47;4394680;32;33469;-87
2021/07/03 04:38:28;;;;;;;;;;;;;;;25.64;42.54;99955.87;4393088;32;36863;-88
2021/07/03 04:41:03;;;;;;;;;;;;;;;25.95;41.88;99942.41;4405228;32;32980;-87
2021/07/03 04:43:38;;;;;;;;;;;;;;;25.95;41.83;99950.44;4392849;32;33241;-88
2021/07/03 04:46:11;;;;;;;;;;;;;;;25.93;41.88;99944.38;4380609;32;33936;-87
2021/07/03 04:48:40;;;;;;;;;;;;;;;26.01;41.82;99941.00;4380233;32;34832;-87
2021/07/03 04:51:16;;;;;;;;;;;;;;;25.82;42.21;99940.03;4472495;31;34404;-87
2021/07/03 04:53:57;;;;;;;;;;;;;;;26.06;41.67;99941.44;4394970;32;32935;-86
2021/07/03 04:56:36;;;;;;;;;;;;;;;25.78;42.52;99948.44;4382269;32;35983;-86
2021/07/03 04:59:19;;;;;;;;;;;;;;;25.78;42.55;99949.31;4383430;32;34376;-86
2021/07/03 05:01:55;;;;;;;;;;;;;;;26.39;41.00;99943.75;4382802;32;34256;-87
2021/07/03 05:04:31;;;;;;;;;;;;;;;26.64;40.44;99953.78;4381102;32;36611;-88
2021/07/03 05:07:06;;;;;;;;;;;;;;;26.12;41.58;99948.03;4394017;32;35605;-87
2021/07/03 05:09:41;;;;;;;;;;;;;;;26.57;40.65;99951.88;4392996;32;35283;-87
2021/07/03 05:12:18;;;;;;;;;;;;;;;26.30;41.21;99945.47;4393763;32;34350;-88
2021/07/03 05:14:58;;;;;;;;;;;;;;;26.50;40.87;99940.94;4383009;32;34519;-87
2021/07/03 05:17:41;;;;;;;;;;;;;;;26.41;41.02;99947.97;4404633;32;37282;-87
2021/07/03 05:20:17;;;;;;;;;;;;;;;27.17;39.41;99946.94;4392747;32;34774;-87
2021/07/03 05:22:55;;;;;;;;;;;;;;;27.29;39.04;99950.25;4382634;32;32477;-88
2021/07/03 05:25:31;;;;;;;;;;;;;;;27.07;39.56;99938.16;4380485;32;34005;-88
2021/07/03 05:28:08;;;;;;;;;;;;;;;27.21;39.28;99947.50;4394650;32;34411;-87
2021/07/03 05:30:48;;;;;;;;;;;;;;;27.56;38.73;99950.38;4382312;32;34782;-86
2021/07/03 05:33:28;;;;;;;;;;;;;;;27.37;39.01;99946.00;4392654;32;33779;-87
2021/07/03 05:36:02;;;;;;;;;;;;;;;27.44;38.76;99947.94;4392348;32;33683;-87
2021/07/03 05:38:46;;;;;;;;;;;;;;;27.56;38.58;99943.22;4380853;32;34023;-87
2021/07/03 05:41:20;;;;;;;;;;;;;;;27.55;38.54;99946.88;4381338;32;35269;-86
2021/07/03 05:43:53;;;;;;;;;;;;;;;27.71;38.17;99939.97;4392799;32;34296;-89
2021/07/03 05:46:31;;;;;;;;;;;;;;;26.38;41.15;99934.06;4381812;32;33450;-86
2021/07/03 05:49:05;;;;;;;;;;;;;;;26.76;40.30;99927.75;4471278;31;35240;-89
2021/07/03 05:51:42;;;;;;;;;;;;;;;27.23;39.33;99937.50;4380183;32;36795;-86
2021/07/03 05:54:21;;;;;;;;;;;;;;;27.29;39.50;99941.41;4382174;32;33571;-88
2021/07/03 05:57:05;;;;;;;;;;;;;;;27.91;37.96;99946.84;4395995;32;35265;-87
2021/07/03 05:59:48;;;;;;;;;;;;;;;27.57;38.60;99944.88;4384197;32;35305;-88
2021/07/03 06:02:22;;;;;;;;;;;;;;;27.51;38.69;99942.84;4383233;32;33553;-88
2021/07/03 06:05:07;;;;;;;;;;;;;;;27.57;38.59;99954.75;4385239;32;34706;-87
2021/07/03 06:07:46;;;;;;;;;;;;;;;27.70;38.28;99960.56;4396233;32;35830;-87
2021/07/03 06:10:24;;;;;;;;;;;;;;;27.95;37.86;99958.94;4394619;32;33976;-87
2021/07/03 06:13:03;;;;;;;;;;;;;;;27.31;39.12;99969.69;4382863;32;34258;-87
2021/07/03 06:15:37;;;;;;;;;;;;;;;27.54;38.71;99961.25;4462445;31;32629;-87
2021/07/03 06:18:13;;;;;;;;;;;;;;;27.33;39.07;99965.00;4383881;32;34201;-87
2021/07/03 06:20:53;;;;;;;;;;;;;;;28.09;37.51;99964.75;4385315;32;35053;-88
2021/07/03 06:23:35;;;;;;;;;;;;;;;27.26;38.99;99969.28;4396173;32;36228;-88
2021/07/03 06:26:17;;;;;;;;;;;;;;;28.05;37.35;99969.56;4395609;32;32727;-88
2021/07/03 06:28:52;;;;;;;;;;;;;;;27.43;38.54;99961.44;4383408;32;34439;-88
2021/07/03 06:31:30;;;;;;;;;;;;;;;27.82;37.83;99962.00;4461622;31;36136;-88
2021/07/03 06:34:06;;;;;;;;;;;;;;;27.95;37.51;99953.59;4383215;32;36306;-87
2021/07/03 06:36:42;;;;;;;;;;;;;;;28.69;36.05;99945.22;4384295;32;33880;-87
2021/07/03 06:39:16;;;;;;;;;;;;;;;28.39;36.82;99943.88;4461071;31;34966;-88
2021/07/03 06:41:56;;;;;;;;;;;;;;;28.85;35.98;99932.91;4396140;32;34517;-87
2021/07/03 06:44:28;;;;;;;;;;;;;;;28.51;36.30;99939.91;4382265;32;37265;-87
2021/07/03 06:47:18;;;;;;;;;;;;;;;28.57;36.02;99941.94;4395403;32;35143;-88
2021/07/03 06:49:50;;;;;;;;;;;;;;;28.64;35.87;99944.84;4381994;32;35524;-89
2021/07/03 06:52:24;;;;;;;;;;;;;;;27.79;36.81;99945.44;4461269;31;35058;-87
2021/07/03 06:54:59;;;;;;;;;;;;;;;29.07;34.43;99943.03;4394305;32;33659;-88
2021/07/03 06:57:35;;;;;;;;;;;;;;;28.90;34.87;99946.66;4383276;32;32375;-88
2021/07/03 07:00:06;;;;;;;;;;;;;;;29.90;32.54;99938.69;4394058;32;34141;-88
2021/07/03 07:02:39;;;;;;;;;;;;;;;30.24;32.06;99939.47;4382328;32;33180;-87
2021/07/03 07:05:13;;;;;;;;;;;;;;;30.39;31.98;99935.06;4382821;32;34201;-87
2021/07/03 07:07:49;;;;;;;;;;;;;;;30.56;31.67;99943.13;4381668;32;34435;-87
2021/07/03 07:10:22;;;;;;;;;;;;;;;29.92;32.44;99947.41;4393864;32;34940;-89
2021/07/03 07:12:53;;;;;;;;;;;;;;;30.43;31.50;99949.84;4381729;32;37587;-88
2021/07/03 07:15:31;;;;;;;;;;;;;;;30.42;31.60;99942.81;4382382;32;34495;-87
2021/07/03 07:18:10;;;;;;;;;;;;;;;30.71;31.29;99952.12;4383069;32;34658;-87
2021/07/03 07:20:46;;;;;;;;;;;;;;;30.63;31.45;99944.97;4394283;32;34613;-89
2021/07/03 07:23:26;;;;;;;;;;;;;;;30.26;31.91;99954.44;4393413;32;33923;-89
2021/07/03 07:26:12;;;;;;;;;;;;;;;30.70;31.13;99945.09;4385279;32;36678;-89
2021/07/03 07:29:08;;;;;;;;;;;;;;;30.94;30.88;99959.44;4465649;31;32836;-89
2021/07/03 07:31:41;;;;;;;;;;;;;;;30.79;31.43;99953.97;4382509;32;34734;-88
2021/07/03 07:34:16;;;;;;;;;;;;;;;30.82;31.35;99964.38;4395156;32;33709;-86
2021/07/03 07:36:50;;;;;;;;;;;;;;;30.45;31.89;99965.81;4382021;32;35777;-86
2021/07/03 07:39:29;;;;;;;;;;;;;;;30.72;31.64;99969.13;4394176;32;34387;-87
2021/07/03 07:41:58;;;;;;;;;;;;;;;30.96;31.52;99981.62;4393772;32;35884;-85
2021/07/03 07:44:31;;;;;;;;;;;;;;;30.24;33.15;99975.25;4406945;32;34368;-88
2021/07/03 07:47:02;;;;;;;;;;;;;;;30.79;32.33;99983.53;4394551;32;33822;-87
2021/07/03 07:49:33;;;;;;;;;;;;;;;30.96;31.99;99981.62;4381666;32;32570;-87
2021/07/03 07:52:05;;;;;;;;;;;;;;;31.15;31.32;99975.00;4405654;32;34377;-88
2021/07/03 07:54:36;;;;;;;;;;;;;;;30.88;31.69;99982.50;4382842;32;33607;-90
2021/07/03 07:57:07;;;;;;;;;;;;;;;30.66;32.12;99984.09;4381453;32;34646;-87
2021/07/03 07:59:41;;;;;;;;;;;;;;;30.81;31.62;99985.03;4394851;32;33725;-88
2021/07/03 08:02:11;;;;;;;;;;;;;;;30.63;31.48;99977.22;4394236;32;33031;-87
2021/07/03 08:04:43;;;;;;;;;;;;;;;30.94;30.97;99971.06;4381627;32;36434;-87
2021/07/03 08:07:14;;;;;;;;;;;;;;;31.31;30.53;99980.31;4444063;32;34571;-87
2021/07/03 08:09:48;;;;;;;;;;;;;;;30.95;31.15;99975.44;4393691;32;34504;-88
2021/07/03 08:12:19;;;;;;;;;;;;;;;31.60;29.97;99976.09;4394320;32;34596;-88
2021/07/03 08:14:57;;;;;;;;;;;;;;;31.21;30.54;99974.31;4406328;32;34139;-88
2021/07/03 08:17:45;;;;;;;;;;;;;;;31.52;29.73;99980.69;4384594;32;32962;-87
2021/07/03 08:20:16;;;;;;;;;;;;;;;31.40;30.15;99986.47;4393165;32;34370;-87
2021/07/03 08:22:48;;;;;;;;;;;;;;;32.16;28.80;99988.50;4459895;31;35030;-88
2021/07/03 08:25:22;;;;;;;;;;;;;;;32.26;28.91;99983.69;4395044;32;36875;-86
2021/07/03 08:27:57;;;;;;;;;;;;;;;32.45;28.31;99982.31;4460651;32;34991;-86
2021/07/03 08:30:28;;;;;;;;;;;;;;;32.43;28.33;99975.41;4400097;32;33323;-87
2021/07/03 08:33:00;;;;;;;;;;;;;;;32.09;28.57;99974.06;4398914;32;33341;-86
2021/07/03 08:35:30;;;;;;;;;;;;;;;30.67;30.65;99977.69;4387285;32;33555;-86
2021/07/03 08:38:00;;;;;;;;;;;;;;;32.23;28.47;99977.81;4395167;32;34045;-88
2021/07/03 08:40:35;;;;;;;;;;;;;;;32.80;27.66;99977.25;4383040;32;35455;-87
2021/07/03 08:43:11;;;;;;;;;;;;;;;32.99;27.33;99976.81;4382407;32;36240;-89
2021/07/03 08:45:46;;;;;;;;;;;;;;;32.77;26.61;99974.06;4393535;32;37264;-89
2021/07/03 08:48:19;;;;;;;;;;;;;;;33.06;26.05;99980.47;4381781;32;34671;-86
2021/07/03 08:50:52;;;;;;;;;;;;;;;32.73;26.24;99984.38;4381512;32;34140;-88
2021/07/03 08:53:25;;;;;;;;;;;;;;;32.43;26.47;99978.13;4406294;32;34471;-89
2021/07/03 08:55:59;;;;;;;;;;;;;;;32.68;26.30;99978.69;4393338;32;33705;-87
2021/07/03 08:58:29;;;;;;;;;;;;;;;33.37;25.55;99984.78;4393105;32;33736;-89
2021/07/03 09:01:01;;;;;;;;;;;;;;;33.33;25.27;99983.50;4405770;32;32968;-88
2021/07/03 09:03:30;;;;;;;;;;;;;;;32.41;27.31;99988.25;4381721;32;33870;-89
2021/07/03 09:06:06;;;;;;;;;;;;;;;33.30;26.34;99990.94;4393007;32;34542;-87
2021/07/03 09:08:34;;;;;;;;;;;;;;;32.27;28.02;99987.19;4392347;32;34334;-88
2021/07/03 09:11:09;;;;;;;;;;;;;;;32.59;26.95;99993.31;4392594;32;33757;-88
2021/07/03 09:13:40;;;;;;;;;;;;;;;32.45;27.04;99979.59;4392817;32;35287;-88
2021/07/03 09:16:10;;;;;;;;;;;;;;;31.97;27.39;99992.50;4392569;32;33956;-88
2021/07/03 09:18:40;;;;;;;;;;;;;;;32.73;26.33;99986.25;4393493;32;34658;-87
2021/07/03 09:21:11;;;;;;;;;;;;;;;33.51;25.33;99989.31;4381416;32;34077;-89
2021/07/03 09:23:48;;;;;;;;;;;;;;;33.84;24.58;99990.69;4381796;32;35480;-89
2021/07/03 09:26:21;;;;;;;;;;;;;;;32.65;26.45;99976.38;4392673;32;35302;-87
2021/07/03 09:28:54;;;;;;;;;;;;;;;33.58;25.43;99974.00;4380688;32;34990;-86
2021/07/03 09:31:27;;;;;;;;;;;;;;;33.26;26.32;99975.31;4380372;32;34475;-88
2021/07/03 09:33:57;;;;;;;;;;;;;;;33.82;25.50;99981.94;4380101;32;36367;-89
2021/07/03 09:36:28;;;;;;;;;;;;;;;32.53;27.03;99977.84;4380839;32;33753;-88
2021/07/03 09:38:59;;;;;;;;;;;;;;;31.98;28.25;99965.38;4405350;32;34293;-86
2021/07/03 09:41:33;;;;;;;;;;;;;;;32.59;27.30;99975.25;4405775;32;33069;-89
2021/07/03 09:44:08;;;;;;;;;;;;;;;33.65;25.44;99971.34;4380716;32;34322;-87
2021/07/03 09:46:45;;;;;;;;;;;;;;;33.77;24.67;99974.38;4393490;32;34259;-86
2021/07/03 09:49:25;;;;;;;;;;;;;;;33.70;25.01;99973.50;4369902;32;1121717;-86
2021/07/03 09:51:59;;;;;;;;;;;;;;;34.69;23.85;99971.75;4442240;32;32454;-88
2021/07/03 09:54:30;;;;;;;;;;;;;;;34.52;24.14;99969.41;4380951;32;35104;-88
2021/07/03 09:57:03;;;;;;;;;;;;;;;33.21;25.96;99954.25;4392213;32;34991;-87
2021/07/03 09:59:33;;;;;;;;;;;;;;;33.96;25.18;99957.53;4393234;32;35429;-87
2021/07/03 10:02:05;;;;;;;;;;;;;;;33.16;26.43;99959.41;4392917;32;32896;-87
2021/07/03 10:04:35;;;;;;;;;;;;;;;33.11;26.17;99956.44;4379809;32;35132;-88
2021/07/03 10:07:09;;;;;;;;;;;;;;;33.13;26.38;99952.53;4391838;32;33725;-88
2021/07/03 10:09:42;;;;;;;;;;;;;;;33.95;25.27;99939.66;4391943;32;35502;-87
2021/07/03 10:12:16;;;;;;;;;;;;;;;33.86;24.78;99929.19;4392278;32;32778;-88
2021/07/03 10:14:48;;;;;;;;;;;;;;;34.22;24.58;99926.31;4392949;32;36204;-88
2021/07/03 10:17:25;;;;;;;;;;;;;;;34.89;23.97;99926.72;4392045;32;34312;-87
2021/07/03 10:19:58;;;;;;;;;;;;;;;33.97;24.19;99931.34;4381657;32;35656;-88
2021/07/03 10:22:31;;;;;;;;;;;;;;;34.48;23.31;99924.84;4381343;32;33699;-85
2021/07/03 10:25:14;;;;;;;;;;;;;;;34.20;24.08;99935.66;4391793;32;36558;-89
2021/07/03 10:27:49;;;;;;;;;;;;;;;33.63;24.75;99949.13;4391671;32;34805;-86
2021/07/03 10:30:26;;;;;;;;;;;;;;;33.95;24.59;99942.34;4391513;32;34529;-85
2021/07/03 10:32:58;;;;;;;;;;;;;;;33.81;24.70;99940.56;4378954;32;33486;-90
2021/07/03 10:35:43;;;;;;;;;;;;;;;35.03;23.01;99943.00;4392296;32;34968;-87
2021/07/03 10:38:14;;;;;;;;;;;;;;;34.11;23.83;99948.50;4391413;32;36799;-86
2021/07/03 10:40:46;;;;;;;;;;;;;;;35.08;22.67;99929.72;4391303;32;34798;-88
2021/07/03 10:43:16;;;;;;;;;;;;;;;35.18;22.36;99941.00;4406891;32;33225;-86
2021/07/03 10:45:58;;;;;;;;;;;;;;;34.83;22.21;99935.66;4385117;32;35149;-89
2021/07/03 10:48:28;;;;;;;;;;;;;;;34.92;22.30;99942.56;4381711;32;33468;-86
2021/07/03 10:51:09;;;;;;;;;;;;;;;34.79;22.66;99935.19;4394139;32;34980;-87
2021/07/03 10:53:43;;;;;;;;;;;;;;;35.60;21.70;99940.87;4382837;32;33774;-86
2021/07/03 10:56:17;;;;;;;;;;;;;;;35.92;20.59;99931.09;4381600;32;35126;-86
2021/07/03 10:58:46;;;;;;;;;;;;;;;35.31;21.21;99934.75;4394569;32;35146;-88
2021/07/03 11:01:19;;;;;;;;;;;;;;;35.03;21.55;99929.47;4395214;32;34027;-86
2021/07/03 11:03:50;;;;;;;;;;;;;;;35.26;21.74;99934.53;4394642;32;34409;-89
2021/07/03 11:06:20;;;;;;;;;;;;;;;35.44;22.03;99932.09;4394070;32;35032;-88
2021/07/03 11:08:55;;;;;;;;;;;;;;;35.38;22.18;99927.53;4407338;32;33922;-87
2021/07/03 11:11:26;;;;;;;;;;;;;;;35.56;21.40;99929.62;4393735;32;34356;-85
2021/07/03 11:13:56;;;;;;;;;;;;;;;35.53;21.89;99924.63;4381230;32;33639;-86
2021/07/03 11:16:26;;;;;;;;;;;;;;;32.68;26.33;99932.81;4393683;32;35797;-88
2021/07/03 11:19:08;;;;;;;;;;;;;;;34.88;23.57;99916.94;4397231;32;34545;-86
2021/07/03 11:21:45;;;;;;;;;;;;;;;34.88;22.97;99922.34;4382980;32;36057;-88
2021/07/03 11:24:15;;;;;;;;;;;;;;;35.79;21.13;99909.41;4394587;32;35999;-89
2021/07/03 11:26:47;;;;;;;;;;;;;;;35.11;22.00;99908.47;4394050;32;32433;-87
2021/07/03 11:29:23;;;;;;;;;;;;;;;35.18;21.91;99904.94;4393441;32;37148;-85
2021/07/03 11:32:01;;;;;;;;;;;;;;;35.23;22.06;99911.41;4393920;32;35653;-86
2021/07/03 11:34:33;;;;;;;;;;;;;;;35.24;22.19;99904.97;4393846;32;34066;-86
2021/07/03 11:37:09;;;;;;;;;;;;;;;35.67;21.77;99892.94;4472351;31;34731;-89
2021/07/03 11:39:52;;;;;;;;;;;;;;;36.24;21.17;99893.31;4440748;32;34675;-88
2021/07/03 11:42:27;;;;;;;;;;;;;;;36.53;20.22;99887.63;4405602;32;33942;-86
2021/07/03 11:44:55;;;;;;;;;;;;;;;34.90;21.30;99887.81;4393372;32;33809;-88
2021/07/03 11:47:32;;;;;;;;;;;;;;;35.10;21.52;99897.84;4381028;32;34876;-88
2021/07/03 11:50:03;;;;;;;;;;;;;;;35.77;20.49;99887.09;4381563;32;35121;-86
2021/07/03 11:52:48;;;;;;;;;;;;;;;35.23;21.40;99887.03;4381258;32;36463;-88
2021/07/03 11:55:21;;;;;;;;;;;;;;;35.14;21.89;99871.19;4393060;32;35924;-86
2021/07/03 11:57:50;;;;;;;;;;;;;;;35.57;20.97;99879.00;4393067;32;33930;-87
2021/07/03 12:00:26;;;;;;;;;;;;;;;34.32;22.51;99871.09;4394187;32;35480;-87
2021/07/03 12:02:57;;;;;;;;;;;;;;;35.74;20.85;99866.69;4405624;32;33233;-89
2021/07/03 12:05:34;;;;;;;;;;;;;;;35.87;19.76;99865.84;4382348;32;34153;-87
2021/07/03 12:08:06;;;;;;;;;;;;;;;35.13;20.86;99870.38;4394484;32;35029;-88
2021/07/03 12:10:45;;;;;;;;;;;;;;;35.83;20.31;99851.00;4393224;32;34175;-87
2021/07/03 12:13:19;;;;;;;;;;;;;;;35.89;20.37;99857.53;4406883;32;34095;-88
2021/07/03 12:15:59;;;;;;;;;;;;;;;35.94;20.60;99865.88;4393529;32;35893;-86
2021/07/03 12:18:31;;;;;;;;;;;;;;;35.53;20.69;99856.91;4392712;32;33070;-88
2021/07/03 12:21:04;;;;;;;;;;;;;;;36.43;20.05;99858.22;4392873;32;35491;-86
2021/07/03 12:23:37;;;;;;;;;;;;;;;36.53;19.80;99864.03;4393956;32;34056;-86
2021/07/03 12:26:06;;;;;;;;;;;;;;;35.31;20.99;99863.53;4392813;32;34162;-87
2021/07/03 12:28:39;;;;;;;;;;;;;;;36.12;19.55;99865.19;4459462;31;34406;-87
2021/07/03 12:31:07;;;;;;;;;;;;;;;35.03;20.77;99851.81;4458842;31;34807;-86
2021/07/03 12:33:40;;;;;;;;;;;;;;;35.78;19.94;99857.09;4393242;32;34686;-88
2021/07/03 12:36:18;;;;;;;;;;;;;;;35.61;20.07;99856.69;4393182;32;33321;-87
2021/07/03 12:38:46;;;;;;;;;;;;;;;35.70;20.10;99851.03;4392783;32;33807;-87
2021/07/03 12:41:14;;;;;;;;;;;;;;;35.60;20.41;99844.16;4393541;32;33806;-87
2021/07/03 12:43:41;;;;;;;;;;;;;;;35.85;20.42;99840.03;4392417;32;35396;-87
2021/07/03 12:46:12;;;;;;;;;;;;;;;36.63;19.55;99844.56;4380844;32;34387;-87
2021/07/03 12:48:43;;;;;;;;;;;;;;;35.62;20.01;99841.25;4392816;32;35371;-87
2021/07/03 12:51:13;;;;;;;;;;;;;;;35.91;20.10;99850.00;4392980;32;36116;-85
2021/07/03 12:53:41;;;;;;;;;;;;;;;36.21;19.82;99847.63;4380403;32;33770;-88
2021/07/03 12:56:11;;;;;;;;;;;;;;;35.59;20.53;99842.53;4392591;32;35707;-86
2021/07/03 12:58:42;;;;;;;;;;;;;;;35.76;20.13;99852.91;4393375;32;33998;-87
2021/07/03 13:01:09;;;;;;;;;;;;;;;35.99;20.07;99846.22;4380263;32;35204;-87
2021/07/03 13:03:40;;;;;;;;;;;;;;;36.02;20.06;99862.06;4381131;32;35009;-89
2021/07/03 13:06:22;;;;;;;;;;;;;;;36.44;19.32;99855.31;4396598;32;35329;-86
2021/07/03 13:08:50;;;;;;;;;;;;;;;36.63;18.97;99855.41;4398289;32;34809;-87
2021/07/03 13:11:24;;;;;;;;;;;;;;;36.79;18.88;99845.94;4398362;32;35338;-86
2021/07/03 13:13:56;;;;;;;;;;;;;;;36.14;19.71;99845.97;4398468;32;33965;-85
2021/07/03 13:16:27;;;;;;;;;;;;;;;36.76;19.32;99841.81;4385904;32;35908;-87
2021/07/03 13:18:57;;;;;;;;;;;;;;;34.77;21.27;99847.16;4395951;32;34144;-87
2021/07/03 13:21:28;;;;;;;;;;;;;;;35.10;21.31;99841.00;4392988;32;34370;-88
2021/07/03 13:24:00;;;;;;;;;;;;;;;35.81;20.04;99847.69;4394069;32;34697;-88
2021/07/03 13:26:31;;;;;;;;;;;;;;;36.26;19.42;99834.28;4472059;31;36078;-87